Kent, Illinois
Current Conditions -  °F | °C
As of 11:55 AM on Monday 24 Nov 2014 (Local Time) from KFEP Reporting Station
Light Snow Light Snow  
Wind Chill: -9°   Ceiling: 700
Heat Index: -2°   Visibility: 1mi
Dew Point: -3°   Wind: 20mph
Humidity: 94%   Direction: 260°W
Pressure: 29.36"   Gusts: 28mph
Location:  42.31°N, 89.9°W
Report Text: KFEP 241755Z AUTO 26017G24KT 1SM -SN OVC007 M02/M03 A2936 RMK AO2 60009 T10211030 10036 21021
Loading
Personal Weather Stations






























Interactive Weather Map New forecast layout! Learn more

10-Day Weather Forecast

Advertisements
Track Severe Weather on mobile